sensor_id;sensor_type;location;lat;lon;timestamp;P1;P2;P0
77538;PMS7003;67783;51.656;16.106;2023-09-19T00:01:34;0;0;0
77538;PMS7003;67783;51.656;16.106;2023-09-19T00:04:41;0;0;0
77538;PMS7003;67783;51.656;16.106;2023-09-19T00:07:43;0;0;0
77538;PMS7003;67783;51.656;16.106;2023-09-19T00:10:46;0;0;0
77538;PMS7003;67783;51.656;16.106;2023-09-19T00:13:49;2;1;0
77538;PMS7003;67783;51.656;16.106;2023-09-19T00:16:51;1;0;0
77538;PMS7003;67783;51.656;16.106;2023-09-19T00:20:02;0;0;0
77538;PMS7003;67783;51.656;16.106;2023-09-19T00:23:13;0;0;0
77538;PMS7003;67783;51.656;16.106;2023-09-19T00:26:15;1;1;1
77538;PMS7003;67783;51.656;16.106;2023-09-19T00:29:28;2;0;0
77538;PMS7003;67783;51.656;16.106;2023-09-19T00:32:33;1;0;0
77538;PMS7003;67783;51.656;16.106;2023-09-19T00:35:35;0;0;0
77538;PMS7003;67783;51.656;16.106;2023-09-19T00:38:37;0;0;0
77538;PMS7003;67783;51.656;16.106;2023-09-19T00:41:39;1;0;0
77538;PMS7003;67783;51.656;16.106;2023-09-19T00:44:49;1;1;1
77538;PMS7003;67783;51.656;16.106;2023-09-19T00:47:52;0;0;0
77538;PMS7003;67783;51.656;16.106;2023-09-19T00:50:54;3;0;0
77538;PMS7003;67783;51.656;16.106;2023-09-19T00:53:58;1;1;1
77538;PMS7003;67783;51.656;16.106;2023-09-19T00:57:00;0;0;0
77538;PMS7003;67783;51.656;16.106;2023-09-19T01:00:09;0;0;0
77538;PMS7003;67783;51.656;16.106;2023-09-19T01:03:17;0;0;0
77538;PMS7003;67783;51.656;16.106;2023-09-19T01:06:19;0;0;0
77538;PMS7003;67783;51.656;16.106;2023-09-19T01:09:21;0;0;0
77538;PMS7003;67783;51.656;16.106;2023-09-19T01:12:24;0;0;0
77538;PMS7003;67783;51.656;16.106;2023-09-19T01:15:46;0;0;0
77538;PMS7003;67783;51.656;16.106;2023-09-19T01:28:52;0;0;0
77538;PMS7003;67783;51.656;16.106;2023-09-19T01:31:59;1;0;0
77538;PMS7003;67783;51.656;16.106;2023-09-19T01:35:05;1;0;0
77538;PMS7003;67783;51.656;16.106;2023-09-19T01:38:13;0;0;0
77538;PMS7003;67783;51.656;16.106;2023-09-19T01:41:17;0;0;0
77538;PMS7003;67783;51.656;16.106;2023-09-19T01:44:29;0;0;0
77538;PMS7003;67783;51.656;16.106;2023-09-19T01:47:55;0;0;0
77538;PMS7003;67783;51.656;16.106;2023-09-19T01:51:02;1;0;0
77538;PMS7003;67783;51.656;16.106;2023-09-19T01:54:10;0;0;0
77538;PMS7003;67783;51.656;16.106;2023-09-19T02:00:30;0;0;0
77538;PMS7003;67783;51.656;16.106;2023-09-19T02:03:36;0;0;0
77538;PMS7003;67783;51.656;16.106;2023-09-19T02:06:41;0;0;0
77538;PMS7003;67783;51.656;16.106;2023-09-19T02:09:43;1;0;0
77538;PMS7003;67783;51.656;16.106;2023-09-19T02:12:44;1;1;0
77538;PMS7003;67783;51.656;16.106;2023-09-19T02:15:46;1;1;1
77538;PMS7003;67783;51.656;16.106;2023-09-19T02:18:48;0;0;0
77538;PMS7003;67783;51.656;16.106;2023-09-19T02:22:01;0;0;0
77538;PMS7003;67783;51.656;16.106;2023-09-19T02:25:10;1;1;1
77538;PMS7003;67783;51.656;16.106;2023-09-19T02:28:15;1;1;1
77538;PMS7003;67783;51.656;16.106;2023-09-19T02:31:16;0;0;0
77538;PMS7003;67783;51.656;16.106;2023-09-19T02:34:18;0;0;0
77538;PMS7003;67783;51.656;16.106;2023-09-19T02:37:22;1;1;1
77538;PMS7003;67783;51.656;16.106;2023-09-19T02:40:24;2;0;0
77538;PMS7003;67783;51.656;16.106;2023-09-19T02:43:26;0;0;0
77538;PMS7003;67783;51.656;16.106;2023-09-19T02:46:28;1;1;0
77538;PMS7003;67783;51.656;16.106;2023-09-19T02:49:30;0;0;0
77538;PMS7003;67783;51.656;16.106;2023-09-19T02:52:43;1;1;0
77538;PMS7003;67783;51.656;16.106;2023-09-19T02:55:49;0;0;0
77538;PMS7003;67783;51.656;16.106;2023-09-19T02:58:53;0;0;0
77538;PMS7003;67783;51.656;16.106;2023-09-19T03:01:56;0;0;0
77538;PMS7003;67783;51.656;16.106;2023-09-19T03:04:59;2;1;1
77538;PMS7003;67783;51.656;16.106;2023-09-19T03:08:04;1;1;0
77538;PMS7003;67783;51.656;16.106;2023-09-19T03:11:07;2;1;0
77538;PMS7003;67783;51.656;16.106;2023-09-19T03:14:12;1;1;0
77538;PMS7003;67783;51.656;16.106;2023-09-19T03:17:14;0;0;0
77538;PMS7003;67783;51.656;16.106;2023-09-19T03:20:16;1;1;1
77538;PMS7003;67783;51.656;16.106;2023-09-19T03:23:24;1;1;0
77538;PMS7003;67783;51.656;16.106;2023-09-19T03:26:27;2;2;1
77538;PMS7003;67783;51.656;16.106;2023-09-19T03:29:28;1;0;0
77538;PMS7003;67783;51.656;16.106;2023-09-19T03:32:30;0;0;0
77538;PMS7003;67783;51.656;16.106;2023-09-19T03:35:32;0;0;0
77538;PMS7003;67783;51.656;16.106;2023-09-19T03:38:34;0;0;0
77538;PMS7003;67783;51.656;16.106;2023-09-19T03:41:36;0;0;0
77538;PMS7003;67783;51.656;16.106;2023-09-19T03:44:41;0;0;0
77538;PMS7003;67783;51.656;16.106;2023-09-19T03:47:42;2;1;0
77538;PMS7003;67783;51.656;16.106;2023-09-19T03:50:44;0;0;0
77538;PMS7003;67783;51.656;16.106;2023-09-19T03:53:45;1;1;1
77538;PMS7003;67783;51.656;16.106;2023-09-19T03:56:49;0;0;0
77538;PMS7003;67783;51.656;16.106;2023-09-19T04:00:01;0;0;0
77538;PMS7003;67783;51.656;16.106;2023-09-19T04:03:06;1;1;0
77538;PMS7003;67783;51.656;16.106;2023-09-19T04:06:09;1;1;1
77538;PMS7003;67783;51.656;16.106;2023-09-19T04:09:11;1;1;0
77538;PMS7003;67783;51.656;16.106;2023-09-19T04:12:13;4;0;0
77538;PMS7003;67783;51.656;16.106;2023-09-19T04:15:23;2;1;0
77538;PMS7003;67783;51.656;16.106;2023-09-19T04:18:25;1;1;1
77538;PMS7003;67783;51.656;16.106;2023-09-19T04:21:27;1;1;1
77538;PMS7003;67783;51.656;16.106;2023-09-19T04:24:29;7;1;1
77538;PMS7003;67783;51.656;16.106;2023-09-19T04:27:33;1;1;1
77538;PMS7003;67783;51.656;16.106;2023-09-19T04:30:42;2;1;1
77538;PMS7003;67783;51.656;16.106;2023-09-19T04:33:44;1;1;1
77538;PMS7003;67783;51.656;16.106;2023-09-19T04:36:46;2;2;1
77538;PMS7003;67783;51.656;16.106;2023-09-19T04:39:47;1;1;1
77538;PMS7003;67783;51.656;16.106;2023-09-19T04:46:03;3;1;1
77538;PMS7003;67783;51.656;16.106;2023-09-19T04:49:07;0;0;0
77538;PMS7003;67783;51.656;16.106;2023-09-19T04:52:08;1;1;0
77538;PMS7003;67783;51.656;16.106;2023-09-19T04:55:11;1;1;1
77538;PMS7003;67783;51.656;16.106;2023-09-19T04:58:17;2;2;1
77538;PMS7003;67783;51.656;16.106;2023-09-19T05:01:23;1;1;1
77538;PMS7003;67783;51.656;16.106;2023-09-19T05:04:25;3;2;2
77538;PMS7003;67783;51.656;16.106;2023-09-19T05:07:26;1;1;1
77538;PMS7003;67783;51.656;16.106;2023-09-19T05:10:28;2;2;1
77538;PMS7003;67783;51.656;16.106;2023-09-19T05:13:30;1;1;1
77538;PMS7003;67783;51.656;16.106;2023-09-19T05:16:32;1;0;0
77538;PMS7003;67783;51.656;16.106;2023-09-19T05:19:34;1;1;0
77538;PMS7003;67783;51.656;16.106;2023-09-19T05:22:39;1;0;0
77538;PMS7003;67783;51.656;16.106;2023-09-19T05:25:41;1;1;1
77538;PMS7003;67783;51.656;16.106;2023-09-19T05:28:44;2;2;1
77538;PMS7003;67783;51.656;16.106;2023-09-19T05:31:45;2;2;2
77538;PMS7003;67783;51.656;16.106;2023-09-19T05:34:47;1;1;0
77538;PMS7003;67783;51.656;16.106;2023-09-19T05:37:52;3;3;1
77538;PMS7003;67783;51.656;16.106;2023-09-19T05:40:56;1;1;1
77538;PMS7003;67783;51.656;16.106;2023-09-19T05:44:01;1;1;1
77538;PMS7003;67783;51.656;16.106;2023-09-19T05:47:04;1;1;1
77538;PMS7003;67783;51.656;16.106;2023-09-19T05:50:06;2;2;1
77538;PMS7003;67783;51.656;16.106;2023-09-19T05:53:11;1;1;0
77538;PMS7003;67783;51.656;16.106;2023-09-19T05:56:15;2;2;1
77538;PMS7003;67783;51.656;16.106;2023-09-19T05:59:21;1;1;0
77538;PMS7003;67783;51.656;16.106;2023-09-19T06:02:23;2;2;1
77538;PMS7003;67783;51.656;16.106;2023-09-19T06:05:30;0;0;0
77538;PMS7003;67783;51.656;16.106;2023-09-19T06:08:32;1;1;1
77538;PMS7003;67783;51.656;16.106;2023-09-19T06:11:34;0;0;0
77538;PMS7003;67783;51.656;16.106;2023-09-19T06:14:42;0;0;0
77538;PMS7003;67783;51.656;16.106;2023-09-19T06:17:48;2;1;1
77538;PMS7003;67783;51.656;16.106;2023-09-19T06:20:50;1;1;1
77538;PMS7003;67783;51.656;16.106;2023-09-19T06:23:53;1;0;0
77538;PMS7003;67783;51.656;16.106;2023-09-19T06:26:55;1;1;1
77538;PMS7003;67783;51.656;16.106;2023-09-19T06:30:03;1;1;1
77538;PMS7003;67783;51.656;16.106;2023-09-19T06:33:05;0;0;0
77538;PMS7003;67783;51.656;16.106;2023-09-19T06:36:07;3;1;1
77538;PMS7003;67783;51.656;16.106;2023-09-19T06:39:09;2;1;1
77538;PMS7003;67783;51.656;16.106;2023-09-19T06:42:11;3;0;0
77538;PMS7003;67783;51.656;16.106;2023-09-19T06:45:23;2;2;1
77538;PMS7003;67783;51.656;16.106;2023-09-19T06:48:27;0;0;0
77538;PMS7003;67783;51.656;16.106;2023-09-19T06:51:34;0;0;0
77538;PMS7003;67783;51.656;16.106;2023-09-19T06:54:35;0;0;0
77538;PMS7003;67783;51.656;16.106;2023-09-19T06:57:38;2;1;1
77538;PMS7003;67783;51.656;16.106;2023-09-19T07:00:43;0;0;0
77538;PMS7003;67783;51.656;16.106;2023-09-19T07:03:45;0;0;0
77538;PMS7003;67783;51.656;16.106;2023-09-19T07:06:50;1;1;1
77538;PMS7003;67783;51.656;16.106;2023-09-19T07:09:51;1;1;1
77538;PMS7003;67783;51.656;16.106;2023-09-19T07:13:04;2;1;0
77538;PMS7003;67783;51.656;16.106;2023-09-19T07:16:06;1;0;0
77538;PMS7003;67783;51.656;16.106;2023-09-19T07:19:16;0;0;0
77538;PMS7003;67783;51.656;16.106;2023-09-19T07:22:21;0;0;0
77538;PMS7003;67783;51.656;16.106;2023-09-19T07:25:30;0;0;0
77538;PMS7003;67783;51.656;16.106;2023-09-19T07:28:32;0;0;0
77538;PMS7003;67783;51.656;16.106;2023-09-19T07:31:37;1;0;0
77538;PMS7003;67783;51.656;16.106;2023-09-19T07:34:38;0;0;0
77538;PMS7003;67783;51.656;16.106;2023-09-19T07:37:41;1;1;1
77538;PMS7003;67783;51.656;16.106;2023-09-19T07:40:51;1;1;1
77538;PMS7003;67783;51.656;16.106;2023-09-19T07:43:52;0;0;0
77538;PMS7003;67783;51.656;16.106;2023-09-19T07:46:54;2;0;0
77538;PMS7003;67783;51.656;16.106;2023-09-19T07:49:57;1;1;1
77538;PMS7003;67783;51.656;16.106;2023-09-19T07:53:01;0;0;0
77538;PMS7003;67783;51.656;16.106;2023-09-19T07:56:11;0;0;0
77538;PMS7003;67783;51.656;16.106;2023-09-19T07:59:14;2;0;0
77538;PMS7003;67783;51.656;16.106;2023-09-19T08:02:18;0;0;0
77538;PMS7003;67783;51.656;16.106;2023-09-19T08:05:19;1;1;1
77538;PMS7003;67783;51.656;16.106;2023-09-19T08:08:21;1;0;0
77538;PMS7003;67783;51.656;16.106;2023-09-19T08:11:32;1;1;1
77538;PMS7003;67783;51.656;16.106;2023-09-19T08:14:34;0;0;0
77538;PMS7003;67783;51.656;16.106;2023-09-19T08:17:35;0;0;0
77538;PMS7003;67783;51.656;16.106;2023-09-19T08:20:36;1;1;1
77538;PMS7003;67783;51.656;16.106;2023-09-19T08:23:38;0;0;0
77538;PMS7003;67783;51.656;16.106;2023-09-19T08:26:41;0;0;0
77538;PMS7003;67783;51.656;16.106;2023-09-19T08:29:43;1;1;0
77538;PMS7003;67783;51.656;16.106;2023-09-19T08:32:48;1;1;1
77538;PMS7003;67783;51.656;16.106;2023-09-19T08:35:50;2;2;1
77538;PMS7003;67783;51.656;16.106;2023-09-19T08:38:51;1;1;1
77538;PMS7003;67783;51.656;16.106;2023-09-19T08:45:01;1;1;0
77538;PMS7003;67783;51.656;16.106;2023-09-19T08:51:30;1;1;1
77538;PMS7003;67783;51.656;16.106;2023-09-19T08:54:40;8;5;4
77538;PMS7003;67783;51.656;16.106;2023-09-19T08:57:45;2;2;1
77538;PMS7003;67783;51.656;16.106;2023-09-19T09:00:49;2;1;0
77538;PMS7003;67783;51.656;16.106;2023-09-19T09:03:53;2;2;2
77538;PMS7003;67783;51.656;16.106;2023-09-19T09:06:56;4;2;2
77538;PMS7003;67783;51.656;16.106;2023-09-19T09:09:59;0;0;0
77538;PMS7003;67783;51.656;16.106;2023-09-19T09:13:05;2;1;1
77538;PMS7003;67783;51.656;16.106;2023-09-19T09:16:07;3;3;2
77538;PMS7003;67783;51.656;16.106;2023-09-19T09:19:10;3;3;2
77538;PMS7003;67783;51.656;16.106;2023-09-19T09:22:15;4;4;3
77538;PMS7003;67783;51.656;16.106;2023-09-19T09:25:18;2;2;2
77538;PMS7003;67783;51.656;16.106;2023-09-19T09:28:26;4;4;3
77538;PMS7003;67783;51.656;16.106;2023-09-19T09:31:29;5;5;4
77538;PMS7003;67783;51.656;16.106;2023-09-19T09:34:32;2;2;2
77538;PMS7003;67783;51.656;16.106;2023-09-19T09:37:34;3;3;2
77538;PMS7003;67783;51.656;16.106;2023-09-19T09:40:49;2;2;2
77538;PMS7003;67783;51.656;16.106;2023-09-19T09:43:59;3;3;3
77538;PMS7003;67783;51.656;16.106;2023-09-19T09:47:22;2;2;2
77538;PMS7003;67783;51.656;16.106;2023-09-19T09:50:32;4;3;2
77538;PMS7003;67783;51.656;16.106;2023-09-19T09:53:47;2;2;2
77538;PMS7003;67783;51.656;16.106;2023-09-19T10:00:01;2;2;2
77538;PMS7003;67783;51.656;16.106;2023-09-19T10:03:20;2;2;1
77538;PMS7003;67783;51.656;16.106;2023-09-19T10:06:24;2;2;1
77538;PMS7003;67783;51.656;16.106;2023-09-19T10:09:28;2;2;2
77538;PMS7003;67783;51.656;16.106;2023-09-19T10:12:42;2;2;1
77538;PMS7003;67783;51.656;16.106;2023-09-19T10:15:48;2;2;2
77538;PMS7003;67783;51.656;16.106;2023-09-19T10:18:55;2;2;2
77538;PMS7003;67783;51.656;16.106;2023-09-19T10:22:03;1;1;1
77538;PMS7003;67783;51.656;16.106;2023-09-19T10:25:14;2;1;1
77538;PMS7003;67783;51.656;16.106;2023-09-19T10:28:21;2;2;2
77538;PMS7003;67783;51.656;16.106;2023-09-19T10:31:22;1;1;1
77538;PMS7003;67783;51.656;16.106;2023-09-19T10:34:27;1;1;1
77538;PMS7003;67783;51.656;16.106;2023-09-19T10:37:31;1;1;1
77538;PMS7003;67783;51.656;16.106;2023-09-19T10:40:36;2;2;1
77538;PMS7003;67783;51.656;16.106;2023-09-19T10:43:44;1;1;1
77538;PMS7003;67783;51.656;16.106;2023-09-19T10:46:49;1;1;1
77538;PMS7003;67783;51.656;16.106;2023-09-19T10:50:02;1;1;0
77538;PMS7003;67783;51.656;16.106;2023-09-19T10:53:07;2;1;1
77538;PMS7003;67783;51.656;16.106;2023-09-19T10:56:15;1;0;0
77538;PMS7003;67783;51.656;16.106;2023-09-19T10:59:29;4;1;1
77538;PMS7003;67783;51.656;16.106;2023-09-19T11:02:35;1;1;1
77538;PMS7003;67783;51.656;16.106;2023-09-19T11:05:37;1;1;1
77538;PMS7003;67783;51.656;16.106;2023-09-19T11:11:52;4;2;1
77538;PMS7003;67783;51.656;16.106;2023-09-19T11:14:57;1;1;0
77538;PMS7003;67783;51.656;16.106;2023-09-19T11:17:59;1;0;0
77538;PMS7003;67783;51.656;16.106;2023-09-19T11:24:29;0;0;0
77538;PMS7003;67783;51.656;16.106;2023-09-19T11:27:36;1;0;0
77538;PMS7003;67783;51.656;16.106;2023-09-19T11:30:48;0;0;0
77538;PMS7003;67783;51.656;16.106;2023-09-19T11:34:15;0;0;0
77538;PMS7003;67783;51.656;16.106;2023-09-19T11:40:17;1;1;0
77538;PMS7003;67783;51.656;16.106;2023-09-19T11:46:34;0;0;0
77538;PMS7003;67783;51.656;16.106;2023-09-19T11:49:45;0;0;0
77538;PMS7003;67783;51.656;16.106;2023-09-19T11:52:51;0;0;0
77538;PMS7003;67783;51.656;16.106;2023-09-19T11:55:56;0;0;0
77538;PMS7003;67783;51.656;16.106;2023-09-19T11:59:01;1;1;1
77538;PMS7003;67783;51.656;16.106;2023-09-19T12:02:04;1;0;0
77538;PMS7003;67783;51.656;16.106;2023-09-19T12:05:09;0;0;0
77538;PMS7003;67783;51.656;16.106;2023-09-19T12:08:14;3;1;1
77538;PMS7003;67783;51.656;16.106;2023-09-19T12:11:17;2;2;1
77538;PMS7003;67783;51.656;16.106;2023-09-19T12:14:22;0;0;0
77538;PMS7003;67783;51.656;16.106;2023-09-19T12:27:01;0;0;0
77538;PMS7003;67783;51.656;16.106;2023-09-19T12:30:07;0;0;0
77538;PMS7003;67783;51.656;16.106;2023-09-19T12:36:22;0;0;0
77538;PMS7003;67783;51.656;16.106;2023-09-19T12:39:30;0;0;0
77538;PMS7003;67783;51.656;16.106;2023-09-19T12:42:38;0;0;0
77538;PMS7003;67783;51.656;16.106;2023-09-19T12:45:42;1;1;1
77538;PMS7003;67783;51.656;16.106;2023-09-19T12:48:45;0;0;0
77538;PMS7003;67783;51.656;16.106;2023-09-19T12:51:49;0;0;0
77538;PMS7003;67783;51.656;16.106;2023-09-19T12:55:00;0;0;0
77538;PMS7003;67783;51.656;16.106;2023-09-19T13:01:20;0;0;0
77538;PMS7003;67783;51.656;16.106;2023-09-19T13:04:27;0;0;0
77538;PMS7003;67783;51.656;16.106;2023-09-19T13:17:17;1;1;1
77538;PMS7003;67783;51.656;16.106;2023-09-19T13:20:25;0;0;0
77538;PMS7003;67783;51.656;16.106;2023-09-19T13:23:38;0;0;0
77538;PMS7003;67783;51.656;16.106;2023-09-19T13:26:42;0;0;0
77538;PMS7003;67783;51.656;16.106;2023-09-19T13:29:44;1;1;1
77538;PMS7003;67783;51.656;16.106;2023-09-19T13:32:45;0;0;0
77538;PMS7003;67783;51.656;16.106;2023-09-19T13:35:48;0;0;0
77538;PMS7003;67783;51.656;16.106;2023-09-19T13:38:49;0;0;0
77538;PMS7003;67783;51.656;16.106;2023-09-19T13:42:03;0;0;0
77538;PMS7003;67783;51.656;16.106;2023-09-19T13:45:06;0;0;0
77538;PMS7003;67783;51.656;16.106;2023-09-19T13:48:08;0;0;0
77538;PMS7003;67783;51.656;16.106;2023-09-19T13:51:11;1;1;0
77538;PMS7003;67783;51.656;16.106;2023-09-19T13:54:13;1;0;0
77538;PMS7003;67783;51.656;16.106;2023-09-19T13:57:23;0;0;0
77538;PMS7003;67783;51.656;16.106;2023-09-19T14:00:25;0;0;0
77538;PMS7003;67783;51.656;16.106;2023-09-19T14:03:28;0;0;0
77538;PMS7003;67783;51.656;16.106;2023-09-19T14:06:30;0;0;0
77538;PMS7003;67783;51.656;16.106;2023-09-19T14:09:33;0;0;0
77538;PMS7003;67783;51.656;16.106;2023-09-19T14:12:47;0;0;0
77538;PMS7003;67783;51.656;16.106;2023-09-19T14:15:49;0;0;0
77538;PMS7003;67783;51.656;16.106;2023-09-19T14:18:51;0;0;0
77538;PMS7003;67783;51.656;16.106;2023-09-19T14:21:53;0;0;0
77538;PMS7003;67783;51.656;16.106;2023-09-19T14:24:57;2;0;0
77538;PMS7003;67783;51.656;16.106;2023-09-19T14:30:12;5;5;5
77538;PMS7003;67783;51.656;16.106;2023-09-19T14:33:15;1;0;0
77538;PMS7003;67783;51.656;16.106;2023-09-19T14:36:16;0;0;0
77538;PMS7003;67783;51.656;16.106;2023-09-19T14:39:20;0;0;0
77538;PMS7003;67783;51.656;16.106;2023-09-19T14:42:21;0;0;0
77538;PMS7003;67783;51.656;16.106;2023-09-19T14:45:23;0;0;0
77538;PMS7003;67783;51.656;16.106;2023-09-19T14:51:33;0;0;0
77538;PMS7003;67783;51.656;16.106;2023-09-19T14:54:37;1;0;0
77538;PMS7003;67783;51.656;16.106;2023-09-19T14:57:42;0;0;0
77538;PMS7003;67783;51.656;16.106;2023-09-19T15:00:46;0;0;0
77538;PMS7003;67783;51.656;16.106;2023-09-19T15:03:51;1;1;0
77538;PMS7003;67783;51.656;16.106;2023-09-19T15:06:55;1;1;0
77538;PMS7003;67783;51.656;16.106;2023-09-19T15:09:57;0;0;0
77538;PMS7003;67783;51.656;16.106;2023-09-19T15:12:58;0;0;0
77538;PMS7003;67783;51.656;16.106;2023-09-19T15:16:00;0;0;0
77538;PMS7003;67783;51.656;16.106;2023-09-19T15:19:12;0;0;0
77538;PMS7003;67783;51.656;16.106;2023-09-19T15:22:13;0;0;0
77538;PMS7003;67783;51.656;16.106;2023-09-19T15:25:15;0;0;0
77538;PMS7003;67783;51.656;16.106;2023-09-19T15:28:16;1;0;0
77538;PMS7003;67783;51.656;16.106;2023-09-19T15:31:19;0;0;0
77538;PMS7003;67783;51.656;16.106;2023-09-19T15:34:20;0;0;0
77538;PMS7003;67783;51.656;16.106;2023-09-19T15:37:22;1;1;1
77538;PMS7003;67783;51.656;16.106;2023-09-19T15:40:27;1;1;0
77538;PMS7003;67783;51.656;16.106;2023-09-19T15:43:30;0;0;0
77538;PMS7003;67783;51.656;16.106;2023-09-19T15:46:32;0;0;0
77538;PMS7003;67783;51.656;16.106;2023-09-19T15:49:38;1;0;0
77538;PMS7003;67783;51.656;16.106;2023-09-19T15:52:39;0;0;0
77538;PMS7003;67783;51.656;16.106;2023-09-19T15:55:47;0;0;0
77538;PMS7003;67783;51.656;16.106;2023-09-19T15:58:49;1;1;0
77538;PMS7003;67783;51.656;16.106;2023-09-19T16:01:53;1;1;1
77538;PMS7003;67783;51.656;16.106;2023-09-19T16:04:54;1;1;0
77538;PMS7003;67783;51.656;16.106;2023-09-19T16:07:56;1;1;1
77538;PMS7003;67783;51.656;16.106;2023-09-19T16:11:08;0;0;0
77538;PMS7003;67783;51.656;16.106;2023-09-19T16:14:10;0;0;0
77538;PMS7003;67783;51.656;16.106;2023-09-19T16:17:12;0;0;0
77538;PMS7003;67783;51.656;16.106;2023-09-19T16:20:14;0;0;0
77538;PMS7003;67783;51.656;16.106;2023-09-19T16:23:17;2;0;0
77538;PMS7003;67783;51.656;16.106;2023-09-19T16:26:28;0;0;0
77538;PMS7003;67783;51.656;16.106;2023-09-19T16:29:31;1;1;1
77538;PMS7003;67783;51.656;16.106;2023-09-19T16:32:34;0;0;0
77538;PMS7003;67783;51.656;16.106;2023-09-19T16:35:37;0;0;0
77538;PMS7003;67783;51.656;16.106;2023-09-19T16:38:41;0;0;0
77538;PMS7003;67783;51.656;16.106;2023-09-19T16:41:48;0;0;0
77538;PMS7003;67783;51.656;16.106;2023-09-19T16:44:50;0;0;0
77538;PMS7003;67783;51.656;16.106;2023-09-19T16:47:52;1;1;0
77538;PMS7003;67783;51.656;16.106;2023-09-19T16:50:59;1;1;0
77538;PMS7003;67783;51.656;16.106;2023-09-19T16:54:05;1;1;0
77538;PMS7003;67783;51.656;16.106;2023-09-19T16:57:09;5;1;1
77538;PMS7003;67783;51.656;16.106;2023-09-19T17:00:11;0;0;0
77538;PMS7003;67783;51.656;16.106;2023-09-19T17:03:18;0;0;0
77538;PMS7003;67783;51.656;16.106;2023-09-19T17:06:19;0;0;0
77538;PMS7003;67783;51.656;16.106;2023-09-19T17:09:24;0;0;0
77538;PMS7003;67783;51.656;16.106;2023-09-19T17:12:30;0;0;0
77538;PMS7003;67783;51.656;16.106;2023-09-19T17:15:32;0;0;0
77538;PMS7003;67783;51.656;16.106;2023-09-19T17:18:34;0;0;0
77538;PMS7003;67783;51.656;16.106;2023-09-19T17:21:36;0;0;0
77538;PMS7003;67783;51.656;16.106;2023-09-19T17:24:38;1;0;0
77538;PMS7003;67783;51.656;16.106;2023-09-19T17:27:39;0;0;0
77538;PMS7003;67783;51.656;16.106;2023-09-19T17:30:41;1;1;1
77538;PMS7003;67783;51.656;16.106;2023-09-19T17:33:46;2;2;2
77538;PMS7003;67783;51.656;16.106;2023-09-19T17:36:48;1;1;1
77538;PMS7003;67783;51.656;16.106;2023-09-19T17:43:21;3;3;3
77538;PMS7003;67783;51.656;16.106;2023-09-19T17:46:23;3;3;3
77538;PMS7003;67783;51.656;16.106;2023-09-19T17:49:29;5;2;1
77538;PMS7003;67783;51.656;16.106;2023-09-19T17:52:39;2;2;1
77538;PMS7003;67783;51.656;16.106;2023-09-19T17:55:46;2;2;2
77538;PMS7003;67783;51.656;16.106;2023-09-19T17:58:54;6;2;2
77538;PMS7003;67783;51.656;16.106;2023-09-19T18:02:05;2;2;2
77538;PMS7003;67783;51.656;16.106;2023-09-19T18:05:07;4;4;2
77538;PMS7003;67783;51.656;16.106;2023-09-19T18:08:09;2;2;1
77538;PMS7003;67783;51.656;16.106;2023-09-19T18:11:17;3;2;1
77538;PMS7003;67783;51.656;16.106;2023-09-19T18:14:25;3;3;2
77538;PMS7003;67783;51.656;16.106;2023-09-19T18:17:29;2;2;1
77538;PMS7003;67783;51.656;16.106;2023-09-19T18:20:34;7;3;2
77538;PMS7003;67783;51.656;16.106;2023-09-19T18:23:38;5;5;2
77538;PMS7003;67783;51.656;16.106;2023-09-19T18:26:40;3;3;3
77538;PMS7003;67783;51.656;16.106;2023-09-19T18:29:43;3;2;1
77538;PMS7003;67783;51.656;16.106;2023-09-19T18:32:50;8;4;2
77538;PMS7003;67783;51.656;16.106;2023-09-19T18:35:52;16;14;10
77538;PMS7003;67783;51.656;16.106;2023-09-19T18:38:54;14;11;9
77538;PMS7003;67783;51.656;16.106;2023-09-19T18:41:57;5;5;3
77538;PMS7003;67783;51.656;16.106;2023-09-19T18:44:59;4;4;3
77538;PMS7003;67783;51.656;16.106;2023-09-19T18:48:10;4;2;2
77538;PMS7003;67783;51.656;16.106;2023-09-19T18:51:17;6;5;2
77538;PMS7003;67783;51.656;16.106;2023-09-19T18:54:19;2;2;1
77538;PMS7003;67783;51.656;16.106;2023-09-19T18:57:20;2;2;1
77538;PMS7003;67783;51.656;16.106;2023-09-19T19:00:22;3;3;2
77538;PMS7003;67783;51.656;16.106;2023-09-19T19:03:31;1;1;1
77538;PMS7003;67783;51.656;16.106;2023-09-19T19:06:34;3;3;2
77538;PMS7003;67783;51.656;16.106;2023-09-19T19:09:36;1;1;1
77538;PMS7003;67783;51.656;16.106;2023-09-19T19:12:40;1;1;1
77538;PMS7003;67783;51.656;16.106;2023-09-19T19:15:42;1;1;1
77538;PMS7003;67783;51.656;16.106;2023-09-19T19:18:52;2;2;1
77538;PMS7003;67783;51.656;16.106;2023-09-19T19:21:54;1;1;1
77538;PMS7003;67783;51.656;16.106;2023-09-19T19:24:55;1;1;0
77538;PMS7003;67783;51.656;16.106;2023-09-19T19:27:58;2;2;1
77538;PMS7003;67783;51.656;16.106;2023-09-19T19:30:59;2;2;1
77538;PMS7003;67783;51.656;16.106;2023-09-19T19:34:01;1;1;1
77538;PMS7003;67783;51.656;16.106;2023-09-19T19:37:03;5;2;0
77538;PMS7003;67783;51.656;16.106;2023-09-19T19:40:07;2;1;1
77538;PMS7003;67783;51.656;16.106;2023-09-19T19:43:11;3;1;1
77538;PMS7003;67783;51.656;16.106;2023-09-19T19:46:13;3;2;1
77538;PMS7003;67783;51.656;16.106;2023-09-19T19:49:15;0;0;0
77538;PMS7003;67783;51.656;16.106;2023-09-19T19:52:17;0;0;0
77538;PMS7003;67783;51.656;16.106;2023-09-19T19:55:28;2;1;1
77538;PMS7003;67783;51.656;16.106;2023-09-19T19:58:32;0;0;0
77538;PMS7003;67783;51.656;16.106;2023-09-19T20:01:36;1;1;0
77538;PMS7003;67783;51.656;16.106;2023-09-19T20:04:37;1;0;0
77538;PMS7003;67783;51.656;16.106;2023-09-19T20:07:41;2;2;0
77538;PMS7003;67783;51.656;16.106;2023-09-19T20:10:48;1;1;0
77538;PMS7003;67783;51.656;16.106;2023-09-19T20:13:50;0;0;0
77538;PMS7003;67783;51.656;16.106;2023-09-19T20:16:51;0;0;0
77538;PMS7003;67783;51.656;16.106;2023-09-19T20:19:57;1;1;0
77538;PMS7003;67783;51.656;16.106;2023-09-19T20:23:00;4;1;1
77538;PMS7003;67783;51.656;16.106;2023-09-19T20:26:09;0;0;0
77538;PMS7003;67783;51.656;16.106;2023-09-19T20:29:11;1;1;1
77538;PMS7003;67783;51.656;16.106;2023-09-19T20:32:13;2;1;0
77538;PMS7003;67783;51.656;16.106;2023-09-19T20:35:16;0;0;0
77538;PMS7003;67783;51.656;16.106;2023-09-19T20:38:18;0;0;0
77538;PMS7003;67783;51.656;16.106;2023-09-19T20:41:29;1;0;0
77538;PMS7003;67783;51.656;16.106;2023-09-19T20:44:31;0;0;0
77538;PMS7003;67783;51.656;16.106;2023-09-19T20:47:33;0;0;0
77538;PMS7003;67783;51.656;16.106;2023-09-19T20:50:34;1;1;1
77538;PMS7003;67783;51.656;16.106;2023-09-19T20:53:37;2;0;0
77538;PMS7003;67783;51.656;16.106;2023-09-19T20:56:50;0;0;0
77538;PMS7003;67783;51.656;16.106;2023-09-19T20:59:54;1;1;0
77538;PMS7003;67783;51.656;16.106;2023-09-19T21:02:56;0;0;0
77538;PMS7003;67783;51.656;16.106;2023-09-19T21:06:02;1;1;0
77538;PMS7003;67783;51.656;16.106;2023-09-19T21:09:07;2;2;2
77538;PMS7003;67783;51.656;16.106;2023-09-19T21:12:12;1;1;0
77538;PMS7003;67783;51.656;16.106;2023-09-19T21:15:15;1;1;1
77538;PMS7003;67783;51.656;16.106;2023-09-19T21:18:18;1;0;0
77538;PMS7003;67783;51.656;16.106;2023-09-19T21:21:19;2;0;0
77538;PMS7003;67783;51.656;16.106;2023-09-19T21:24:22;1;1;1
77538;PMS7003;67783;51.656;16.106;2023-09-19T21:27:33;1;1;0
77538;PMS7003;67783;51.656;16.106;2023-09-19T21:30:35;0;0;0
77538;PMS7003;67783;51.656;16.106;2023-09-19T21:33:38;2;1;0
77538;PMS7003;67783;51.656;16.106;2023-09-19T21:36:42;0;0;0